sensor_id;sensor_type;location;lat;lon;timestamp;P1;durP1;ratioP1;P2;durP2;ratioP2
9392;SDS011;4736;52.508;13.422;2023-07-22T00:00:54;6.27;;;5.97;;
9392;SDS011;4736;52.508;13.422;2023-07-22T00:03:58;6.50;;;6.30;;
9392;SDS011;4736;52.508;13.422;2023-07-22T00:07:01;6.23;;;5.83;;
9392;SDS011;4736;52.508;13.422;2023-07-22T00:10:05;6.50;;;6.20;;
9392;SDS011;4736;52.508;13.422;2023-07-22T00:13:11;6.73;;;6.33;;
9392;SDS011;4736;52.508;13.422;2023-07-22T00:16:14;7.90;;;7.40;;
9392;SDS011;4736;52.508;13.422;2023-07-22T00:19:17;6.77;;;6.57;;
9392;SDS011;4736;52.508;13.422;2023-07-22T00:22:22;7.00;;;6.60;;
9392;SDS011;4736;52.508;13.422;2023-07-22T00:25:28;7.23;;;6.63;;
9392;SDS011;4736;52.508;13.422;2023-07-22T00:28:32;6.60;;;6.40;;
9392;SDS011;4736;52.508;13.422;2023-07-22T00:31:36;7.53;;;6.83;;
9392;SDS011;4736;52.508;13.422;2023-07-22T00:34:39;7.63;;;7.07;;
9392;SDS011;4736;52.508;13.422;2023-07-22T00:37:42;7.37;;;6.97;;
9392;SDS011;4736;52.508;13.422;2023-07-22T00:40:45;7.67;;;7.27;;
9392;SDS011;4736;52.508;13.422;2023-07-22T00:43:50;8.03;;;7.60;;
9392;SDS011;4736;52.508;13.422;2023-07-22T00:46:54;7.27;;;6.77;;
9392;SDS011;4736;52.508;13.422;2023-07-22T00:50:00;8.13;;;7.53;;
9392;SDS011;4736;52.508;13.422;2023-07-22T00:53:05;8.13;;;7.57;;
9392;SDS011;4736;52.508;13.422;2023-07-22T00:56:08;7.97;;;7.27;;
9392;SDS011;4736;52.508;13.422;2023-07-22T00:59:18;7.70;;;7.20;;
9392;SDS011;4736;52.508;13.422;2023-07-22T01:02:22;6.97;;;6.57;;
9392;SDS011;4736;52.508;13.422;2023-07-22T01:05:26;7.00;;;6.70;;
9392;SDS011;4736;52.508;13.422;2023-07-22T01:08:30;8.23;;;7.83;;
9392;SDS011;4736;52.508;13.422;2023-07-22T01:11:33;7.80;;;7.33;;
9392;SDS011;4736;52.508;13.422;2023-07-22T01:14:38;7.40;;;7.03;;
9392;SDS011;4736;52.508;13.422;2023-07-22T01:17:42;8.00;;;7.70;;
9392;SDS011;4736;52.508;13.422;2023-07-22T01:20:46;8.63;;;8.03;;
9392;SDS011;4736;52.508;13.422;2023-07-22T01:23:51;7.77;;;7.27;;
9392;SDS011;4736;52.508;13.422;2023-07-22T01:26:55;7.77;;;7.37;;
9392;SDS011;4736;52.508;13.422;2023-07-22T01:29:58;7.07;;;6.77;;
9392;SDS011;4736;52.508;13.422;2023-07-22T01:33:03;10.03;;;7.30;;
9392;SDS011;4736;52.508;13.422;2023-07-22T01:36:07;7.57;;;7.07;;
9392;SDS011;4736;52.508;13.422;2023-07-22T01:39:11;7.73;;;7.30;;
9392;SDS011;4736;52.508;13.422;2023-07-22T01:42:15;8.33;;;7.87;;
9392;SDS011;4736;52.508;13.422;2023-07-22T01:48:55;8.83;;;8.33;;
9392;SDS011;4736;52.508;13.422;2023-07-22T01:51:58;7.03;;;6.73;;
9392;SDS011;4736;52.508;13.422;2023-07-22T01:55:03;7.10;;;6.80;;
9392;SDS011;4736;52.508;13.422;2023-07-22T01:58:07;7.70;;;7.20;;
9392;SDS011;4736;52.508;13.422;2023-07-22T02:01:11;7.67;;;7.27;;
9392;SDS011;4736;52.508;13.422;2023-07-22T02:04:15;7.87;;;7.27;;
9392;SDS011;4736;52.508;13.422;2023-07-22T02:07:18;7.97;;;7.47;;
9392;SDS011;4736;52.508;13.422;2023-07-22T02:10:23;6.90;;;6.60;;
9392;SDS011;4736;52.508;13.422;2023-07-22T02:13:26;7.83;;;7.20;;
9392;SDS011;4736;52.508;13.422;2023-07-22T02:16:29;7.73;;;7.23;;
9392;SDS011;4736;52.508;13.422;2023-07-22T02:19:32;7.70;;;7.20;;
9392;SDS011;4736;52.508;13.422;2023-07-22T02:22:35;7.20;;;6.80;;
9392;SDS011;4736;52.508;13.422;2023-07-22T02:25:40;6.10;;;5.90;;
9392;SDS011;4736;52.508;13.422;2023-07-22T02:28:44;7.17;;;6.67;;
9392;SDS011;4736;52.508;13.422;2023-07-22T02:31:48;6.80;;;6.40;;
9392;SDS011;4736;52.508;13.422;2023-07-22T02:34:51;6.97;;;6.30;;
9392;SDS011;4736;52.508;13.422;2023-07-22T02:37:55;6.93;;;6.63;;
9392;SDS011;4736;52.508;13.422;2023-07-22T02:41:06;6.93;;;6.37;;
9392;SDS011;4736;52.508;13.422;2023-07-22T02:44:10;6.53;;;6.10;;
9392;SDS011;4736;52.508;13.422;2023-07-22T02:47:13;6.77;;;6.30;;
9392;SDS011;4736;52.508;13.422;2023-07-22T02:50:17;6.90;;;6.37;;
9392;SDS011;4736;52.508;13.422;2023-07-22T02:53:20;6.20;;;6.00;;
9392;SDS011;4736;52.508;13.422;2023-07-22T02:56:25;6.80;;;6.50;;
9392;SDS011;4736;52.508;13.422;2023-07-22T02:59:29;6.60;;;6.00;;
9392;SDS011;4736;52.508;13.422;2023-07-22T03:02:32;7.10;;;6.40;;
9392;SDS011;4736;52.508;13.422;2023-07-22T03:05:36;6.70;;;6.23;;
9392;SDS011;4736;52.508;13.422;2023-07-22T03:08:39;6.80;;;6.43;;
9392;SDS011;4736;52.508;13.422;2023-07-22T03:11:44;6.43;;;6.13;;
9392;SDS011;4736;52.508;13.422;2023-07-22T03:14:47;6.40;;;6.03;;
9392;SDS011;4736;52.508;13.422;2023-07-22T03:17:50;6.20;;;5.90;;
9392;SDS011;4736;52.508;13.422;2023-07-22T03:20:53;6.07;;;5.70;;
9392;SDS011;4736;52.508;13.422;2023-07-22T03:23:56;5.80;;;5.60;;
9392;SDS011;4736;52.508;13.422;2023-07-22T03:27:01;6.20;;;5.70;;
9392;SDS011;4736;52.508;13.422;2023-07-22T03:30:05;6.10;;;5.73;;
9392;SDS011;4736;52.508;13.422;2023-07-22T03:33:09;7.03;;;6.73;;
9392;SDS011;4736;52.508;13.422;2023-07-22T03:36:12;6.30;;;6.03;;
9392;SDS011;4736;52.508;13.422;2023-07-22T03:39:15;6.03;;;5.57;;
9392;SDS011;4736;52.508;13.422;2023-07-22T03:42:20;6.17;;;5.90;;
9392;SDS011;4736;52.508;13.422;2023-07-22T03:45:23;5.73;;;5.53;;
9392;SDS011;4736;52.508;13.422;2023-07-22T03:48:26;6.27;;;5.73;;
9392;SDS011;4736;52.508;13.422;2023-07-22T03:51:30;7.10;;;6.50;;
9392;SDS011;4736;52.508;13.422;2023-07-22T03:54:33;5.80;;;5.40;;
9392;SDS011;4736;52.508;13.422;2023-07-22T03:57:38;6.33;;;6.13;;
9392;SDS011;4736;52.508;13.422;2023-07-22T04:00:41;6.33;;;5.97;;
9392;SDS011;4736;52.508;13.422;2023-07-22T04:03:44;6.03;;;5.73;;
9392;SDS011;4736;52.508;13.422;2023-07-22T04:06:48;6.63;;;5.97;;
9392;SDS011;4736;52.508;13.422;2023-07-22T04:09:52;6.67;;;6.17;;
9392;SDS011;4736;52.508;13.422;2023-07-22T04:12:56;5.90;;;5.50;;
9392;SDS011;4736;52.508;13.422;2023-07-22T04:15:59;6.70;;;5.97;;
9392;SDS011;4736;52.508;13.422;2023-07-22T04:19:02;5.97;;;5.53;;
9392;SDS011;4736;52.508;13.422;2023-07-22T04:22:05;6.63;;;6.13;;
9392;SDS011;4736;52.508;13.422;2023-07-22T04:25:09;5.07;;;4.90;;
9392;SDS011;4736;52.508;13.422;2023-07-22T04:28:13;5.57;;;5.37;;
9392;SDS011;4736;52.508;13.422;2023-07-22T04:31:16;6.13;;;5.83;;
9392;SDS011;4736;52.508;13.422;2023-07-22T04:34:20;5.63;;;5.33;;
9392;SDS011;4736;52.508;13.422;2023-07-22T04:37:23;5.83;;;5.63;;
9392;SDS011;4736;52.508;13.422;2023-07-22T04:40:26;6.23;;;5.87;;
9392;SDS011;4736;52.508;13.422;2023-07-22T04:43:30;5.70;;;5.40;;
9392;SDS011;4736;52.508;13.422;2023-07-22T04:46:34;6.03;;;5.80;;
9392;SDS011;4736;52.508;13.422;2023-07-22T04:49:37;6.50;;;5.90;;
9392;SDS011;4736;52.508;13.422;2023-07-22T04:52:42;5.70;;;5.40;;
9392;SDS011;4736;52.508;13.422;2023-07-22T04:55:47;5.40;;;5.20;;
9392;SDS011;4736;52.508;13.422;2023-07-22T04:58:51;6.40;;;5.90;;
9392;SDS011;4736;52.508;13.422;2023-07-22T05:01:55;6.10;;;5.80;;
9392;SDS011;4736;52.508;13.422;2023-07-22T05:04:58;6.00;;;5.70;;
9392;SDS011;4736;52.508;13.422;2023-07-22T05:08:01;6.90;;;6.50;;
9392;SDS011;4736;52.508;13.422;2023-07-22T05:11:06;6.80;;;6.33;;
9392;SDS011;4736;52.508;13.422;2023-07-22T05:14:11;7.23;;;6.83;;
9392;SDS011;4736;52.508;13.422;2023-07-22T05:17:14;6.97;;;6.47;;
9392;SDS011;4736;52.508;13.422;2023-07-22T05:20:17;6.90;;;6.50;;
9392;SDS011;4736;52.508;13.422;2023-07-22T05:23:21;7.77;;;7.20;;
9392;SDS011;4736;52.508;13.422;2023-07-22T05:26:24;6.90;;;6.43;;
9392;SDS011;4736;52.508;13.422;2023-07-22T05:29:29;6.97;;;6.37;;
9392;SDS011;4736;52.508;13.422;2023-07-22T05:32:33;7.17;;;6.77;;
9392;SDS011;4736;52.508;13.422;2023-07-22T05:35:36;7.47;;;6.93;;
9392;SDS011;4736;52.508;13.422;2023-07-22T05:38:39;9.30;;;7.57;;
9392;SDS011;4736;52.508;13.422;2023-07-22T05:41:42;7.80;;;7.20;;
9392;SDS011;4736;52.508;13.422;2023-07-22T05:44:47;7.63;;;7.10;;
9392;SDS011;4736;52.508;13.422;2023-07-22T05:47:51;7.67;;;7.17;;
9392;SDS011;4736;52.508;13.422;2023-07-22T05:50:54;8.27;;;7.57;;
9392;SDS011;4736;52.508;13.422;2023-07-22T05:53:57;7.97;;;7.37;;
9392;SDS011;4736;52.508;13.422;2023-07-22T05:57:00;7.80;;;7.30;;
9392;SDS011;4736;52.508;13.422;2023-07-22T06:00:07;8.07;;;7.50;;
9392;SDS011;4736;52.508;13.422;2023-07-22T06:03:14;8.00;;;7.30;;
9392;SDS011;4736;52.508;13.422;2023-07-22T06:06:18;9.20;;;8.30;;
9392;SDS011;4736;52.508;13.422;2023-07-22T06:09:24;8.70;;;8.00;;
9392;SDS011;4736;52.508;13.422;2023-07-22T06:12:27;8.57;;;7.97;;
9392;SDS011;4736;52.508;13.422;2023-07-22T06:15:32;8.20;;;7.40;;
9392;SDS011;4736;52.508;13.422;2023-07-22T06:18:35;8.00;;;7.47;;
9392;SDS011;4736;52.508;13.422;2023-07-22T06:21:38;7.80;;;7.03;;
9392;SDS011;4736;52.508;13.422;2023-07-22T06:24:41;7.23;;;6.63;;
9392;SDS011;4736;52.508;13.422;2023-07-22T06:27:44;7.87;;;7.33;;
9392;SDS011;4736;52.508;13.422;2023-07-22T06:30:49;7.83;;;7.23;;
9392;SDS011;4736;52.508;13.422;2023-07-22T06:33:52;7.57;;;6.97;;
9392;SDS011;4736;52.508;13.422;2023-07-22T06:36:56;6.60;;;6.20;;
9392;SDS011;4736;52.508;13.422;2023-07-22T06:39:59;7.40;;;6.70;;
9392;SDS011;4736;52.508;13.422;2023-07-22T06:43:03;7.07;;;6.57;;
9392;SDS011;4736;52.508;13.422;2023-07-22T06:46:08;8.60;;;7.00;;
9392;SDS011;4736;52.508;13.422;2023-07-22T06:49:11;7.97;;;7.37;;
9392;SDS011;4736;52.508;13.422;2023-07-22T06:52:14;7.50;;;6.90;;
9392;SDS011;4736;52.508;13.422;2023-07-22T06:55:17;9.33;;;6.73;;
9392;SDS011;4736;52.508;13.422;2023-07-22T06:58:21;6.47;;;5.87;;
9392;SDS011;4736;52.508;13.422;2023-07-22T07:01:26;6.83;;;6.23;;
9392;SDS011;4736;52.508;13.422;2023-07-22T07:04:29;6.50;;;5.97;;
9392;SDS011;4736;52.508;13.422;2023-07-22T07:07:32;5.80;;;5.50;;
9392;SDS011;4736;52.508;13.422;2023-07-22T07:10:36;5.53;;;5.23;;
9392;SDS011;4736;52.508;13.422;2023-07-22T07:13:40;5.80;;;5.40;;
9392;SDS011;4736;52.508;13.422;2023-07-22T07:16:45;5.97;;;4.97;;
9392;SDS011;4736;52.508;13.422;2023-07-22T07:19:48;5.13;;;4.73;;
9392;SDS011;4736;52.508;13.422;2023-07-22T07:22:51;4.87;;;4.67;;
9392;SDS011;4736;52.508;13.422;2023-07-22T07:25:54;5.53;;;5.03;;
9392;SDS011;4736;52.508;13.422;2023-07-22T07:28:57;6.57;;;4.80;;
9392;SDS011;4736;52.508;13.422;2023-07-22T07:32:02;5.37;;;4.90;;
9392;SDS011;4736;52.508;13.422;2023-07-22T07:35:07;5.30;;;4.83;;
9392;SDS011;4736;52.508;13.422;2023-07-22T07:38:10;5.33;;;4.83;;
9392;SDS011;4736;52.508;13.422;2023-07-22T07:41:13;6.03;;;5.43;;
9392;SDS011;4736;52.508;13.422;2023-07-22T07:44:16;5.63;;;5.13;;
9392;SDS011;4736;52.508;13.422;2023-07-22T07:47:21;6.07;;;5.13;;
9392;SDS011;4736;52.508;13.422;2023-07-22T07:50:24;5.80;;;5.27;;
9392;SDS011;4736;52.508;13.422;2023-07-22T07:53:27;5.70;;;5.23;;
9392;SDS011;4736;52.508;13.422;2023-07-22T07:56:31;5.60;;;5.20;;
9392;SDS011;4736;52.508;13.422;2023-07-22T07:59:34;5.07;;;4.67;;
9392;SDS011;4736;52.508;13.422;2023-07-22T08:02:41;6.00;;;5.50;;
9392;SDS011;4736;52.508;13.422;2023-07-22T08:05:44;5.73;;;5.20;;
9392;SDS011;4736;52.508;13.422;2023-07-22T08:08:47;6.20;;;5.70;;
9392;SDS011;4736;52.508;13.422;2023-07-22T08:11:50;6.03;;;5.63;;
9392;SDS011;4736;52.508;13.422;2023-07-22T08:14:54;5.70;;;5.30;;
9392;SDS011;4736;52.508;13.422;2023-07-22T08:17:58;6.00;;;5.40;;
9392;SDS011;4736;52.508;13.422;2023-07-22T08:21:02;5.83;;;5.50;;
9392;SDS011;4736;52.508;13.422;2023-07-22T08:24:06;5.57;;;5.03;;
9392;SDS011;4736;52.508;13.422;2023-07-22T08:27:10;5.67;;;5.23;;
9392;SDS011;4736;52.508;13.422;2023-07-22T08:30:13;6.03;;;5.63;;
9392;SDS011;4736;52.508;13.422;2023-07-22T08:33:18;6.13;;;5.73;;
9392;SDS011;4736;52.508;13.422;2023-07-22T08:36:39;5.77;;;5.37;;
9392;SDS011;4736;52.508;13.422;2023-07-22T08:39:43;7.47;;;5.40;;
9392;SDS011;4736;52.508;13.422;2023-07-22T08:42:46;9.93;;;7.23;;
9392;SDS011;4736;52.508;13.422;2023-07-22T08:45:52;7.20;;;6.60;;
9392;SDS011;4736;52.508;13.422;2023-07-22T08:48:58;5.77;;;5.37;;
9392;SDS011;4736;52.508;13.422;2023-07-22T08:52:03;6.20;;;5.70;;
9392;SDS011;4736;52.508;13.422;2023-07-22T08:55:07;5.37;;;4.97;;
9392;SDS011;4736;52.508;13.422;2023-07-22T08:58:12;5.53;;;5.10;;
9392;SDS011;4736;52.508;13.422;2023-07-22T09:01:15;6.07;;;5.67;;
9392;SDS011;4736;52.508;13.422;2023-07-22T09:04:20;5.93;;;5.53;;
9392;SDS011;4736;52.508;13.422;2023-07-22T09:07:24;7.10;;;5.33;;
9392;SDS011;4736;52.508;13.422;2023-07-22T09:10:28;5.77;;;5.40;;
9392;SDS011;4736;52.508;13.422;2023-07-22T09:13:32;5.40;;;4.90;;
9392;SDS011;4736;52.508;13.422;2023-07-22T09:16:36;5.93;;;5.40;;
9392;SDS011;4736;52.508;13.422;2023-07-22T09:19:41;6.13;;;5.60;;
9392;SDS011;4736;52.508;13.422;2023-07-22T09:22:44;5.80;;;5.30;;
9392;SDS011;4736;52.508;13.422;2023-07-22T09:25:57;6.00;;;4.93;;
9392;SDS011;4736;52.508;13.422;2023-07-22T09:29:10;6.20;;;5.80;;
9392;SDS011;4736;52.508;13.422;2023-07-22T09:32:13;5.27;;;4.97;;
9392;SDS011;4736;52.508;13.422;2023-07-22T09:35:18;10.23;;;6.97;;
9392;SDS011;4736;52.508;13.422;2023-07-22T09:38:22;5.33;;;4.90;;
9392;SDS011;4736;52.508;13.422;2023-07-22T09:41:27;6.03;;;5.63;;
9392;SDS011;4736;52.508;13.422;2023-07-22T09:44:31;5.87;;;5.43;;
9392;SDS011;4736;52.508;13.422;2023-07-22T09:47:39;5.20;;;4.80;;
9392;SDS011;4736;52.508;13.422;2023-07-22T09:50:45;5.43;;;5.20;;
9392;SDS011;4736;52.508;13.422;2023-07-22T09:53:59;4.20;;;4.00;;
9392;SDS011;4736;52.508;13.422;2023-07-22T09:57:03;5.00;;;4.70;;
9392;SDS011;4736;52.508;13.422;2023-07-22T10:00:07;4.33;;;4.03;;
9392;SDS011;4736;52.508;13.422;2023-07-22T10:03:11;4.80;;;4.60;;
9392;SDS011;4736;52.508;13.422;2023-07-22T10:06:19;3.83;;;3.67;;
9392;SDS011;4736;52.508;13.422;2023-07-22T10:09:22;4.20;;;3.87;;
9392;SDS011;4736;52.508;13.422;2023-07-22T10:12:29;3.83;;;3.73;;
9392;SDS011;4736;52.508;13.422;2023-07-22T10:15:33;5.63;;;5.23;;
9392;SDS011;4736;52.508;13.422;2023-07-22T10:18:36;6.00;;;5.50;;
9392;SDS011;4736;52.508;13.422;2023-07-22T10:21:44;4.50;;;4.20;;
9392;SDS011;4736;52.508;13.422;2023-07-22T10:24:48;5.00;;;4.70;;
9392;SDS011;4736;52.508;13.422;2023-07-22T10:27:52;4.80;;;4.50;;
9392;SDS011;4736;52.508;13.422;2023-07-22T10:30:56;5.13;;;4.77;;
9392;SDS011;4736;52.508;13.422;2023-07-22T10:34:00;4.80;;;4.60;;
9392;SDS011;4736;52.508;13.422;2023-07-22T10:37:05;4.63;;;4.23;;
9392;SDS011;4736;52.508;13.422;2023-07-22T10:40:16;5.20;;;4.97;;
9392;SDS011;4736;52.508;13.422;2023-07-22T10:43:28;5.73;;;5.43;;
9392;SDS011;4736;52.508;13.422;2023-07-22T10:46:33;4.73;;;4.43;;
9392;SDS011;4736;52.508;13.422;2023-07-22T10:49:44;4.53;;;4.23;;
9392;SDS011;4736;52.508;13.422;2023-07-22T10:52:49;4.40;;;4.20;;
9392;SDS011;4736;52.508;13.422;2023-07-22T10:56:03;9.47;;;8.57;;
9392;SDS011;4736;52.508;13.422;2023-07-22T10:59:08;6.70;;;5.77;;
9392;SDS011;4736;52.508;13.422;2023-07-22T11:02:22;5.33;;;5.03;;
9392;SDS011;4736;52.508;13.422;2023-07-22T11:05:40;5.40;;;4.90;;
9392;SDS011;4736;52.508;13.422;2023-07-22T11:08:51;7.20;;;6.70;;
9392;SDS011;4736;52.508;13.422;2023-07-22T11:11:55;8.57;;;7.87;;
9392;SDS011;4736;52.508;13.422;2023-07-22T11:15:01;5.27;;;4.87;;
9392;SDS011;4736;52.508;13.422;2023-07-22T11:18:06;5.63;;;5.23;;
9392;SDS011;4736;52.508;13.422;2023-07-22T11:21:10;5.40;;;5.10;;
9392;SDS011;4736;52.508;13.422;2023-07-22T11:24:16;5.20;;;4.70;;
9392;SDS011;4736;52.508;13.422;2023-07-22T11:27:19;5.33;;;4.80;;
9392;SDS011;4736;52.508;13.422;2023-07-22T11:30:23;5.87;;;5.43;;
9392;SDS011;4736;52.508;13.422;2023-07-22T11:33:26;5.40;;;5.10;;
9392;SDS011;4736;52.508;13.422;2023-07-22T11:36:41;5.83;;;5.43;;
9392;SDS011;4736;52.508;13.422;2023-07-22T11:39:46;5.77;;;5.47;;
9392;SDS011;4736;52.508;13.422;2023-07-22T11:42:49;7.83;;;7.30;;
9392;SDS011;4736;52.508;13.422;2023-07-22T11:45:54;5.77;;;5.40;;
9392;SDS011;4736;52.508;13.422;2023-07-22T11:48:57;5.20;;;5.00;;
9392;SDS011;4736;52.508;13.422;2023-07-22T11:52:04;5.90;;;5.50;;
9392;SDS011;4736;52.508;13.422;2023-07-22T11:55:10;6.30;;;5.93;;
9392;SDS011;4736;52.508;13.422;2023-07-22T11:58:24;5.13;;;4.93;;
9392;SDS011;4736;52.508;13.422;2023-07-22T12:01:29;5.80;;;5.50;;
9392;SDS011;4736;52.508;13.422;2023-07-22T12:04:35;5.67;;;5.17;;
9392;SDS011;4736;52.508;13.422;2023-07-22T12:07:38;5.20;;;4.80;;
9392;SDS011;4736;52.508;13.422;2023-07-22T12:10:44;5.90;;;5.60;;
9392;SDS011;4736;52.508;13.422;2023-07-22T12:14:07;6.03;;;5.30;;
9392;SDS011;4736;52.508;13.422;2023-07-22T12:17:15;5.70;;;5.40;;
9392;SDS011;4736;52.508;13.422;2023-07-22T12:20:19;5.70;;;5.40;;
9392;SDS011;4736;52.508;13.422;2023-07-22T12:23:26;4.63;;;4.33;;
9392;SDS011;4736;52.508;13.422;2023-07-22T12:26:31;4.80;;;4.40;;
9392;SDS011;4736;52.508;13.422;2023-07-22T12:29:34;4.73;;;4.53;;
9392;SDS011;4736;52.508;13.422;2023-07-22T12:32:38;5.27;;;4.97;;
9392;SDS011;4736;52.508;13.422;2023-07-22T12:35:41;5.23;;;4.90;;
9392;SDS011;4736;52.508;13.422;2023-07-22T12:38:44;5.53;;;5.10;;
9392;SDS011;4736;52.508;13.422;2023-07-22T12:41:49;5.23;;;4.93;;
9392;SDS011;4736;52.508;13.422;2023-07-22T12:44:52;5.13;;;4.93;;
9392;SDS011;4736;52.508;13.422;2023-07-22T12:47:55;5.53;;;5.33;;
9392;SDS011;4736;52.508;13.422;2023-07-22T12:50:58;5.47;;;5.17;;
9392;SDS011;4736;52.508;13.422;2023-07-22T12:54:01;5.43;;;5.13;;
9392;SDS011;4736;52.508;13.422;2023-07-22T12:57:07;5.93;;;5.43;;
9392;SDS011;4736;52.508;13.422;2023-07-22T13:00:10;6.03;;;5.50;;
9392;SDS011;4736;52.508;13.422;2023-07-22T13:03:14;5.97;;;5.67;;
9392;SDS011;4736;52.508;13.422;2023-07-22T13:06:17;5.97;;;5.67;;
9392;SDS011;4736;52.508;13.422;2023-07-22T13:09:20;5.33;;;5.03;;
9392;SDS011;4736;52.508;13.422;2023-07-22T13:12:25;6.20;;;5.77;;
9392;SDS011;4736;52.508;13.422;2023-07-22T13:15:28;6.20;;;5.70;;
9392;SDS011;4736;52.508;13.422;2023-07-22T13:18:31;5.50;;;5.20;;
9392;SDS011;4736;52.508;13.422;2023-07-22T13:21:34;6.10;;;5.50;;
9392;SDS011;4736;52.508;13.422;2023-07-22T13:24:37;5.63;;;5.40;;
9392;SDS011;4736;52.508;13.422;2023-07-22T13:27:42;7.53;;;7.03;;
9392;SDS011;4736;52.508;13.422;2023-07-22T13:30:45;8.60;;;8.00;;
9392;SDS011;4736;52.508;13.422;2023-07-22T13:33:48;6.17;;;5.80;;
9392;SDS011;4736;52.508;13.422;2023-07-22T13:36:51;5.20;;;4.93;;
9392;SDS011;4736;52.508;13.422;2023-07-22T13:39:54;6.40;;;5.90;;
9392;SDS011;4736;52.508;13.422;2023-07-22T13:43:00;5.20;;;4.90;;
9392;SDS011;4736;52.508;13.422;2023-07-22T13:46:04;5.83;;;5.53;;
9392;SDS011;4736;52.508;13.422;2023-07-22T13:49:07;6.10;;;5.80;;
9392;SDS011;4736;52.508;13.422;2023-07-22T13:52:10;5.20;;;5.00;;
9392;SDS011;4736;52.508;13.422;2023-07-22T13:55:13;4.70;;;4.50;;
9392;SDS011;4736;52.508;13.422;2023-07-22T13:58:17;5.87;;;5.47;;
9392;SDS011;4736;52.508;13.422;2023-07-22T14:01:20;7.70;;;7.30;;
9392;SDS011;4736;52.508;13.422;2023-07-22T14:04:23;4.80;;;4.60;;
9392;SDS011;4736;52.508;13.422;2023-07-22T14:07:27;5.30;;;5.10;;
9392;SDS011;4736;52.508;13.422;2023-07-22T14:10:30;5.03;;;4.83;;
9392;SDS011;4736;52.508;13.422;2023-07-22T14:13:34;5.53;;;5.30;;
9392;SDS011;4736;52.508;13.422;2023-07-22T14:16:37;5.03;;;4.83;;
9392;SDS011;4736;52.508;13.422;2023-07-22T14:19:41;5.47;;;5.00;;
9392;SDS011;4736;52.508;13.422;2023-07-22T14:22:44;5.10;;;4.90;;
9392;SDS011;4736;52.508;13.422;2023-07-22T14:25:47;4.77;;;4.67;;
9392;SDS011;4736;52.508;13.422;2023-07-22T14:28:52;5.40;;;5.20;;
9392;SDS011;4736;52.508;13.422;2023-07-22T14:31:55;5.13;;;4.93;;
9392;SDS011;4736;52.508;13.422;2023-07-22T14:34:59;5.20;;;5.00;;
9392;SDS011;4736;52.508;13.422;2023-07-22T14:38:02;5.30;;;5.10;;
9392;SDS011;4736;52.508;13.422;2023-07-22T14:41:05;5.70;;;5.33;;
9392;SDS011;4736;52.508;13.422;2023-07-22T14:44:11;5.77;;;5.30;;
9392;SDS011;4736;52.508;13.422;2023-07-22T14:47:14;5.33;;;5.13;;
9392;SDS011;4736;52.508;13.422;2023-07-22T14:50:17;4.77;;;4.50;;
9392;SDS011;4736;52.508;13.422;2023-07-22T14:53:20;5.60;;;5.33;;
9392;SDS011;4736;52.508;13.422;2023-07-22T14:56:23;6.70;;;5.77;;
9392;SDS011;4736;52.508;13.422;2023-07-22T14:59:28;5.17;;;4.83;;
9392;SDS011;4736;52.508;13.422;2023-07-22T15:02:31;5.80;;;5.40;;
9392;SDS011;4736;52.508;13.422;2023-07-22T15:05:34;5.47;;;5.17;;
9392;SDS011;4736;52.508;13.422;2023-07-22T15:08:38;5.37;;;5.17;;
9392;SDS011;4736;52.508;13.422;2023-07-22T15:11:41;5.63;;;5.20;;
9392;SDS011;4736;52.508;13.422;2023-07-22T15:14:45;6.27;;;5.97;;
9392;SDS011;4736;52.508;13.422;2023-07-22T15:17:48;6.30;;;5.87;;
9392;SDS011;4736;52.508;13.422;2023-07-22T15:20:52;5.90;;;5.57;;
9392;SDS011;4736;52.508;13.422;2023-07-22T15:23:55;5.57;;;5.27;;
9392;SDS011;4736;52.508;13.422;2023-07-22T15:26:58;6.20;;;5.80;;
9392;SDS011;4736;52.508;13.422;2023-07-22T15:30:03;5.90;;;5.60;;
9392;SDS011;4736;52.508;13.422;2023-07-22T15:33:08;6.17;;;5.73;;
9392;SDS011;4736;52.508;13.422;2023-07-22T15:36:11;5.73;;;5.53;;
9392;SDS011;4736;52.508;13.422;2023-07-22T15:39:14;6.67;;;6.07;;
9392;SDS011;4736;52.508;13.422;2023-07-22T15:42:17;6.07;;;5.77;;
9392;SDS011;4736;52.508;13.422;2023-07-22T15:45:22;5.57;;;5.10;;
9392;SDS011;4736;52.508;13.422;2023-07-22T15:48:25;6.27;;;5.83;;
9392;SDS011;4736;52.508;13.422;2023-07-22T15:51:28;6.40;;;5.90;;
9392;SDS011;4736;52.508;13.422;2023-07-22T15:54:32;5.87;;;5.60;;
9392;SDS011;4736;52.508;13.422;2023-07-22T15:57:35;6.03;;;5.73;;
9392;SDS011;4736;52.508;13.422;2023-07-22T16:00:39;6.60;;;6.10;;
9392;SDS011;4736;52.508;13.422;2023-07-22T16:03:43;5.77;;;5.37;;
9392;SDS011;4736;52.508;13.422;2023-07-22T16:06:46;5.70;;;5.37;;
9392;SDS011;4736;52.508;13.422;2023-07-22T16:09:49;6.07;;;5.70;;
9392;SDS011;4736;52.508;13.422;2023-07-22T16:12:54;5.20;;;5.00;;
9392;SDS011;4736;52.508;13.422;2023-07-22T16:15:58;6.03;;;5.43;;
9392;SDS011;4736;52.508;13.422;2023-07-22T16:19:01;4.93;;;4.73;;
9392;SDS011;4736;52.508;13.422;2023-07-22T16:22:04;5.43;;;5.03;;
9392;SDS011;4736;52.508;13.422;2023-07-22T16:25:09;4.97;;;4.77;;
9392;SDS011;4736;52.508;13.422;2023-07-22T16:28:12;5.33;;;5.00;;
9392;SDS011;4736;52.508;13.422;2023-07-22T16:31:17;5.20;;;5.00;;
9392;SDS011;4736;52.508;13.422;2023-07-22T16:34:20;4.77;;;4.47;;
9392;SDS011;4736;52.508;13.422;2023-07-22T16:37:23;4.87;;;4.57;;
9392;SDS011;4736;52.508;13.422;2023-07-22T16:40:26;4.90;;;4.70;;
9392;SDS011;4736;52.508;13.422;2023-07-22T16:43:30;4.93;;;4.73;;
9392;SDS011;4736;52.508;13.422;2023-07-22T16:46:34;4.87;;;4.67;;
9392;SDS011;4736;52.508;13.422;2023-07-22T16:49:38;5.17;;;4.87;;
9392;SDS011;4736;52.508;13.422;2023-07-22T16:52:41;4.63;;;4.33;;
9392;SDS011;4736;52.508;13.422;2023-07-22T16:55:44;4.87;;;4.77;;
9392;SDS011;4736;52.508;13.422;2023-07-22T16:58:47;4.47;;;4.17;;
9392;SDS011;4736;52.508;13.422;2023-07-22T17:01:52;5.30;;;5.10;;
9392;SDS011;4736;52.508;13.422;2023-07-22T17:04:55;5.33;;;4.90;;
9392;SDS011;4736;52.508;13.422;2023-07-22T17:07:58;4.83;;;4.53;;
9392;SDS011;4736;52.508;13.422;2023-07-22T17:11:02;5.40;;;5.17;;
9392;SDS011;4736;52.508;13.422;2023-07-22T17:14:05;5.30;;;5.10;;
9392;SDS011;4736;52.508;13.422;2023-07-22T17:17:10;4.80;;;4.60;;
9392;SDS011;4736;52.508;13.422;2023-07-22T17:20:13;5.27;;;5.07;;
9392;SDS011;4736;52.508;13.422;2023-07-22T17:23:16;5.07;;;4.87;;
9392;SDS011;4736;52.508;13.422;2023-07-22T17:26:19;5.33;;;4.93;;
9392;SDS011;4736;52.508;13.422;2023-07-22T17:29:22;5.03;;;4.60;;
9392;SDS011;4736;52.508;13.422;2023-07-22T17:32:27;5.50;;;5.20;;
9392;SDS011;4736;52.508;13.422;2023-07-22T17:35:30;4.90;;;4.70;;
9392;SDS011;4736;52.508;13.422;2023-07-22T17:38:36;4.90;;;4.70;;
9392;SDS011;4736;52.508;13.422;2023-07-22T17:41:41;4.93;;;4.70;;
9392;SDS011;4736;52.508;13.422;2023-07-22T17:44:45;4.80;;;4.60;;
9392;SDS011;4736;52.508;13.422;2023-07-22T17:47:49;5.40;;;5.10;;
9392;SDS011;4736;52.508;13.422;2023-07-22T17:50:54;4.87;;;4.50;;
9392;SDS011;4736;52.508;13.422;2023-07-22T17:53:57;5.27;;;4.80;;
9392;SDS011;4736;52.508;13.422;2023-07-22T17:57:00;4.70;;;4.50;;
9392;SDS011;4736;52.508;13.422;2023-07-22T18:00:03;4.90;;;4.70;;
9392;SDS011;4736;52.508;13.422;2023-07-22T18:03:09;5.30;;;5.00;;
9392;SDS011;4736;52.508;13.422;2023-07-22T18:06:12;4.50;;;4.30;;
9392;SDS011;4736;52.508;13.422;2023-07-22T18:09:17;4.33;;;4.20;;
9392;SDS011;4736;52.508;13.422;2023-07-22T18:12:20;4.30;;;4.00;;
9392;SDS011;4736;52.508;13.422;2023-07-22T18:15:23;4.43;;;4.13;;
9392;SDS011;4736;52.508;13.422;2023-07-22T18:18:28;4.67;;;4.47;;
9392;SDS011;4736;52.508;13.422;2023-07-22T18:21:31;4.30;;;4.20;;
9392;SDS011;4736;52.508;13.422;2023-07-22T18:24:35;4.20;;;4.10;;
9392;SDS011;4736;52.508;13.422;2023-07-22T18:27:38;4.30;;;4.20;;
9392;SDS011;4736;52.508;13.422;2023-07-22T18:30:41;4.60;;;4.43;;
9392;SDS011;4736;52.508;13.422;2023-07-22T18:33:46;5.00;;;4.80;;
9392;SDS011;4736;52.508;13.422;2023-07-22T18:36:50;4.70;;;4.50;;
9392;SDS011;4736;52.508;13.422;2023-07-22T18:39:54;5.17;;;4.87;;
9392;SDS011;4736;52.508;13.422;2023-07-22T18:42:58;5.07;;;4.77;;
9392;SDS011;4736;52.508;13.422;2023-07-22T18:46:01;4.13;;;4.03;;
9392;SDS011;4736;52.508;13.422;2023-07-22T18:49:06;4.50;;;4.40;;